sensor_id;sensor_type;location;lat;lon;timestamp;pressure;altitude;pressure_sealevel;temperature;humidity
54329;BME280;40710;51.120;13.136;2022-11-15T00:01:16;99329.31;;;12.37;60.13
54329;BME280;40710;51.120;13.136;2022-11-15T00:03:42;99331.72;;;12.11;60.65
54329;BME280;40710;51.120;13.136;2022-11-15T00:06:06;99323.28;;;12.35;60.53
54329;BME280;40710;51.120;13.136;2022-11-15T00:08:32;99335.91;;;11.39;60.90
54329;BME280;40710;51.120;13.136;2022-11-15T00:10:59;99317.09;;;13.06;59.42
54329;BME280;40710;51.120;13.136;2022-11-15T00:13:24;99316.31;;;12.62;58.66
54329;BME280;40710;51.120;13.136;2022-11-15T00:15:48;99329.38;;;12.06;60.55
54329;BME280;40710;51.120;13.136;2022-11-15T00:18:13;99322.91;;;12.26;59.97
54329;BME280;40710;51.120;13.136;2022-11-15T00:20:39;99310.09;;;12.49;59.00
54329;BME280;40710;51.120;13.136;2022-11-15T00:23:04;99319.22;;;12.15;60.15
54329;BME280;40710;51.120;13.136;2022-11-15T00:25:29;99301.97;;;12.81;56.40
54329;BME280;40710;51.120;13.136;2022-11-15T00:27:58;99320.50;;;11.93;59.92
54329;BME280;40710;51.120;13.136;2022-11-15T00:30:22;99330.75;;;11.21;61.38
54329;BME280;40710;51.120;13.136;2022-11-15T00:32:47;99305.56;;;13.49;58.47
54329;BME280;40710;51.120;13.136;2022-11-15T00:35:11;99310.88;;;12.22;57.50
54329;BME280;40710;51.120;13.136;2022-11-15T00:37:36;99316.88;;;12.53;58.69
54329;BME280;40710;51.120;13.136;2022-11-15T00:40:01;99329.06;;;11.36;61.57
54329;BME280;40710;51.120;13.136;2022-11-15T00:42:25;99321.44;;;11.92;59.50
54329;BME280;40710;51.120;13.136;2022-11-15T00:44:50;99327.81;;;11.58;61.52
54329;BME280;40710;51.120;13.136;2022-11-15T00:47:14;99325.63;;;11.34;61.46
54329;BME280;40710;51.120;13.136;2022-11-15T00:49:39;99331.19;;;11.60;60.91
54329;BME280;40710;51.120;13.136;2022-11-15T00:52:05;99326.91;;;11.43;61.38
54329;BME280;40710;51.120;13.136;2022-11-15T00:54:29;99338.28;;;11.43;62.28
54329;BME280;40710;51.120;13.136;2022-11-15T00:56:54;99330.22;;;11.77;61.73
54329;BME280;40710;51.120;13.136;2022-11-15T00:59:18;99321.69;;;11.87;60.96
54329;BME280;40710;51.120;13.136;2022-11-15T01:01:43;99332.78;;;11.32;62.24
54329;BME280;40710;51.120;13.136;2022-11-15T01:04:07;99321.66;;;11.73;59.72
54329;BME280;40710;51.120;13.136;2022-11-15T01:06:32;99315.56;;;12.03;59.74
54329;BME280;40710;51.120;13.136;2022-11-15T01:08:57;99326.63;;;11.17;62.74
54329;BME280;40710;51.120;13.136;2022-11-15T01:11:21;99325.47;;;11.37;62.66
54329;BME280;40710;51.120;13.136;2022-11-15T01:13:46;99316.75;;;11.97;60.43
54329;BME280;40710;51.120;13.136;2022-11-15T01:16:14;99299.47;;;12.22;60.97
54329;BME280;40710;51.120;13.136;2022-11-15T01:18:40;99308.00;;;11.36;61.87
54329;BME280;40710;51.120;13.136;2022-11-15T01:21:06;99293.47;;;11.75;60.36
54329;BME280;40710;51.120;13.136;2022-11-15T01:23:31;99308.28;;;10.68;63.97
54329;BME280;40710;51.120;13.136;2022-11-15T01:26:00;99289.88;;;12.06;61.13
54329;BME280;40710;51.120;13.136;2022-11-15T01:28:25;99296.16;;;10.97;61.93
54329;BME280;40710;51.120;13.136;2022-11-15T01:30:49;99305.97;;;10.62;63.36
54329;BME280;40710;51.120;13.136;2022-11-15T01:33:14;99301.59;;;10.94;63.64
54329;BME280;40710;51.120;13.136;2022-11-15T01:35:39;99285.81;;;11.10;62.38
54329;BME280;40710;51.120;13.136;2022-11-15T01:38:04;99288.50;;;11.24;62.24
54329;BME280;40710;51.120;13.136;2022-11-15T01:40:29;99280.91;;;11.34;62.68
54329;BME280;40710;51.120;13.136;2022-11-15T01:42:53;99290.75;;;10.84;63.33
54329;BME280;40710;51.120;13.136;2022-11-15T01:45:18;99287.13;;;11.33;63.27
54329;BME280;40710;51.120;13.136;2022-11-15T01:47:51;99277.69;;;11.29;62.81
54329;BME280;40710;51.120;13.136;2022-11-15T01:50:23;99264.03;;;11.83;60.95
54329;BME280;40710;51.120;13.136;2022-11-15T01:52:49;99258.72;;;12.13;61.42
54329;BME280;40710;51.120;13.136;2022-11-15T01:55:19;99268.56;;;11.04;62.59
54329;BME280;40710;51.120;13.136;2022-11-15T01:57:50;99269.81;;;11.29;62.33
54329;BME280;40710;51.120;13.136;2022-11-15T02:00:15;99256.47;;;10.86;62.88
54329;BME280;40710;51.120;13.136;2022-11-15T02:02:40;99261.06;;;10.82;63.30
54329;BME280;40710;51.120;13.136;2022-11-15T02:05:06;99266.31;;;10.34;64.02
54329;BME280;40710;51.120;13.136;2022-11-15T02:07:32;99254.28;;;10.94;62.83
54329;BME280;40710;51.120;13.136;2022-11-15T02:10:06;99250.00;;;11.07;62.15
54329;BME280;40710;51.120;13.136;2022-11-15T02:12:32;99254.81;;;11.31;62.35
54329;BME280;40710;51.120;13.136;2022-11-15T02:14:57;99249.66;;;11.13;62.36
54329;BME280;40710;51.120;13.136;2022-11-15T02:17:48;99231.84;;;11.63;60.09
54329;BME280;40710;51.120;13.136;2022-11-15T02:23:31;99240.53;;;11.35;61.33
54329;BME280;40710;51.120;13.136;2022-11-15T02:26:42;99243.50;;;11.29;61.16
54329;BME280;40710;51.120;13.136;2022-11-15T02:29:58;99244.41;;;11.13;61.95
54329;BME280;40710;51.120;13.136;2022-11-15T02:32:29;99243.06;;;11.06;61.73
54329;BME280;40710;51.120;13.136;2022-11-15T02:35:16;99236.03;;;10.91;62.58
54329;BME280;40710;51.120;13.136;2022-11-15T02:37:44;99228.53;;;11.45;61.52
54329;BME280;40710;51.120;13.136;2022-11-15T02:40:23;99228.22;;;11.35;61.65
54329;BME280;40710;51.120;13.136;2022-11-15T02:43:00;99225.50;;;11.07;62.86
54329;BME280;40710;51.120;13.136;2022-11-15T02:45:51;99216.13;;;11.47;61.19
54329;BME280;40710;51.120;13.136;2022-11-15T02:48:21;99218.34;;;10.78;61.62
54329;BME280;40710;51.120;13.136;2022-11-15T02:50:47;99232.06;;;10.68;62.89
54329;BME280;40710;51.120;13.136;2022-11-15T02:53:11;99226.97;;;10.81;62.05
54329;BME280;40710;51.120;13.136;2022-11-15T02:55:36;99212.19;;;11.54;60.84
54329;BME280;40710;51.120;13.136;2022-11-15T02:58:25;99197.13;;;12.84;56.79
54329;BME280;40710;51.120;13.136;2022-11-15T03:04:03;99217.91;;;11.47;60.65
54329;BME280;40710;51.120;13.136;2022-11-15T03:06:50;99204.88;;;11.88;59.49
54329;BME280;40710;51.120;13.136;2022-11-15T03:09:30;99219.72;;;11.00;61.97
54329;BME280;40710;51.120;13.136;2022-11-15T03:12:28;99209.56;;;11.54;60.34
54329;BME280;40710;51.120;13.136;2022-11-15T03:14:56;99207.34;;;11.32;60.18
54329;BME280;40710;51.120;13.136;2022-11-15T03:19:54;99210.28;;;11.42;60.69
54329;BME280;40710;51.120;13.136;2022-11-15T03:22:24;99199.16;;;11.82;59.09
54329;BME280;40710;51.120;13.136;2022-11-15T03:24:56;99216.28;;;10.84;62.13
54329;BME280;40710;51.120;13.136;2022-11-15T03:27:27;99192.09;;;11.53;60.38
54329;BME280;40710;51.120;13.136;2022-11-15T03:30:04;99194.19;;;11.32;60.69
54329;BME280;40710;51.120;13.136;2022-11-15T03:32:34;99193.75;;;11.40;60.49
54329;BME280;40710;51.120;13.136;2022-11-15T03:35:09;99189.22;;;11.42;60.72
54329;BME280;40710;51.120;13.136;2022-11-15T03:38:00;99179.88;;;11.67;60.18
54329;BME280;40710;51.120;13.136;2022-11-15T03:40:41;99191.28;;;11.37;60.44
54329;BME280;40710;51.120;13.136;2022-11-15T03:46:16;99172.38;;;12.73;55.55
54329;BME280;40710;51.120;13.136;2022-11-15T03:48:51;99185.59;;;11.45;59.47
54329;BME280;40710;51.120;13.136;2022-11-15T03:51:17;99185.94;;;11.39;61.00
54329;BME280;40710;51.120;13.136;2022-11-15T03:53:42;99193.81;;;11.24;61.56
54329;BME280;40710;51.120;13.136;2022-11-15T03:56:07;99175.06;;;11.45;60.39
54329;BME280;40710;51.120;13.136;2022-11-15T03:58:31;99186.59;;;10.97;62.44
54329;BME280;40710;51.120;13.136;2022-11-15T04:00:56;99189.63;;;11.50;61.00
54329;BME280;40710;51.120;13.136;2022-11-15T04:03:20;99162.88;;;13.37;55.95
54329;BME280;40710;51.120;13.136;2022-11-15T04:05:45;99180.81;;;11.80;59.02
54329;BME280;40710;51.120;13.136;2022-11-15T04:08:09;99171.47;;;11.90;58.90
54329;BME280;40710;51.120;13.136;2022-11-15T04:10:34;99173.69;;;11.97;58.92
54329;BME280;40710;51.120;13.136;2022-11-15T04:12:59;99173.66;;;12.11;58.47
54329;BME280;40710;51.120;13.136;2022-11-15T04:15:24;99187.00;;;11.79;59.72
54329;BME280;40710;51.120;13.136;2022-11-15T04:17:53;99191.19;;;11.39;60.58
54329;BME280;40710;51.120;13.136;2022-11-15T04:20:19;99175.16;;;11.58;60.09
54329;BME280;40710;51.120;13.136;2022-11-15T04:23:17;99191.28;;;11.37;61.29
54329;BME280;40710;51.120;13.136;2022-11-15T04:26:04;99179.09;;;11.36;61.00
54329;BME280;40710;51.120;13.136;2022-11-15T04:28:29;99167.94;;;11.76;59.45
54329;BME280;40710;51.120;13.136;2022-11-15T04:30:54;99178.09;;;11.23;59.96
54329;BME280;40710;51.120;13.136;2022-11-15T04:33:19;99174.50;;;11.54;61.55
54329;BME280;40710;51.120;13.136;2022-11-15T04:35:44;99157.03;;;11.82;59.81
54329;BME280;40710;51.120;13.136;2022-11-15T04:38:28;99160.44;;;11.25;61.50
54329;BME280;40710;51.120;13.136;2022-11-15T04:40:53;99148.09;;;12.95;58.35
54329;BME280;40710;51.120;13.136;2022-11-15T04:43:17;99153.53;;;12.24;58.27
54329;BME280;40710;51.120;13.136;2022-11-15T04:45:42;99156.16;;;11.67;59.46
54329;BME280;40710;51.120;13.136;2022-11-15T04:48:07;99150.72;;;12.13;58.57
54329;BME280;40710;51.120;13.136;2022-11-15T04:50:31;99154.75;;;13.00;57.83
54329;BME280;40710;51.120;13.136;2022-11-15T04:52:56;99153.53;;;11.67;59.38
54329;BME280;40710;51.120;13.136;2022-11-15T04:55:21;99162.91;;;11.28;60.74
54329;BME280;40710;51.120;13.136;2022-11-15T04:57:45;99152.06;;;11.91;59.22
54329;BME280;40710;51.120;13.136;2022-11-15T05:00:14;99167.59;;;11.23;60.42
54329;BME280;40710;51.120;13.136;2022-11-15T05:02:40;99173.16;;;11.02;61.56
54329;BME280;40710;51.120;13.136;2022-11-15T05:05:23;99178.28;;;10.89;62.69
54329;BME280;40710;51.120;13.136;2022-11-15T05:07:48;99162.09;;;11.70;59.79
54329;BME280;40710;51.120;13.136;2022-11-15T05:10:13;99158.16;;;11.92;58.96
54329;BME280;40710;51.120;13.136;2022-11-15T05:12:38;99159.78;;;11.95;58.63
54329;BME280;40710;51.120;13.136;2022-11-15T05:15:02;99163.72;;;11.73;58.97
54329;BME280;40710;51.120;13.136;2022-11-15T05:17:27;99166.31;;;11.00;61.10
54329;BME280;40710;51.120;13.136;2022-11-15T05:19:52;99166.97;;;10.57;63.36
54329;BME280;40710;51.120;13.136;2022-11-15T05:22:16;99171.28;;;10.58;63.43
54329;BME280;40710;51.120;13.136;2022-11-15T05:24:41;99143.19;;;11.64;60.26
54329;BME280;40710;51.120;13.136;2022-11-15T05:27:05;99134.38;;;11.65;60.30
54329;BME280;40710;51.120;13.136;2022-11-15T05:29:30;99131.06;;;11.90;59.36
54329;BME280;40710;51.120;13.136;2022-11-15T05:31:54;99141.91;;;11.12;60.84
54329;BME280;40710;51.120;13.136;2022-11-15T05:34:19;99142.94;;;11.09;61.65
54329;BME280;40710;51.120;13.136;2022-11-15T05:36:45;99140.16;;;11.41;61.00
54329;BME280;40710;51.120;13.136;2022-11-15T05:39:10;99143.53;;;11.29;62.04
54329;BME280;40710;51.120;13.136;2022-11-15T05:42:02;99137.84;;;11.51;60.47
54329;BME280;40710;51.120;13.136;2022-11-15T05:44:31;99137.16;;;11.33;61.14
54329;BME280;40710;51.120;13.136;2022-11-15T05:46:57;99133.44;;;11.95;59.18
54329;BME280;40710;51.120;13.136;2022-11-15T05:49:25;99136.25;;;11.63;59.77
54329;BME280;40710;51.120;13.136;2022-11-15T05:51:51;99139.97;;;11.30;61.23
54329;BME280;40710;51.120;13.136;2022-11-15T05:54:19;99147.41;;;10.63;63.88
54329;BME280;40710;51.120;13.136;2022-11-15T05:56:46;99136.16;;;11.05;62.35
54329;BME280;40710;51.120;13.136;2022-11-15T05:59:11;99147.06;;;10.53;63.62
54329;BME280;40710;51.120;13.136;2022-11-15T06:01:37;99132.84;;;11.32;61.97
54329;BME280;40710;51.120;13.136;2022-11-15T06:04:03;99136.75;;;10.80;62.25
54329;BME280;40710;51.120;13.136;2022-11-15T06:06:28;99141.34;;;10.29;64.37
54329;BME280;40710;51.120;13.136;2022-11-15T06:08:53;99133.56;;;11.20;61.88
54329;BME280;40710;51.120;13.136;2022-11-15T06:11:17;99139.41;;;10.80;63.25
54329;BME280;40710;51.120;13.136;2022-11-15T06:13:42;99135.94;;;11.53;61.28
54329;BME280;40710;51.120;13.136;2022-11-15T06:16:07;99143.00;;;10.47;63.40
54329;BME280;40710;51.120;13.136;2022-11-15T06:18:33;99151.25;;;10.23;64.25
54329;BME280;40710;51.120;13.136;2022-11-15T06:21:00;99157.78;;;10.00;64.56
54329;BME280;40710;51.120;13.136;2022-11-15T06:23:26;99145.19;;;11.01;62.66
54329;BME280;40710;51.120;13.136;2022-11-15T06:25:51;99138.72;;;10.60;63.26
54329;BME280;40710;51.120;13.136;2022-11-15T06:28:15;99146.63;;;10.45;64.17
54329;BME280;40710;51.120;13.136;2022-11-15T06:30:40;99139.44;;;10.94;62.70
54329;BME280;40710;51.120;13.136;2022-11-15T06:33:05;99124.91;;;12.18;59.55
54329;BME280;40710;51.120;13.136;2022-11-15T06:35:30;99121.94;;;12.10;58.76
54329;BME280;40710;51.120;13.136;2022-11-15T06:37:55;99126.38;;;11.66;59.62
54329;BME280;40710;51.120;13.136;2022-11-15T06:40:20;99135.19;;;11.80;60.43
54329;BME280;40710;51.120;13.136;2022-11-15T06:42:45;99140.50;;;11.06;61.75
54329;BME280;40710;51.120;13.136;2022-11-15T06:45:09;99144.63;;;11.10;61.43
54329;BME280;40710;51.120;13.136;2022-11-15T06:47:34;99144.81;;;11.66;61.71
54329;BME280;40710;51.120;13.136;2022-11-15T06:49:59;99143.31;;;11.77;59.60
54329;BME280;40710;51.120;13.136;2022-11-15T06:52:23;99152.78;;;11.06;62.27
54329;BME280;40710;51.120;13.136;2022-11-15T06:54:48;99145.66;;;11.52;60.30
54329;BME280;40710;51.120;13.136;2022-11-15T06:57:12;99151.09;;;11.05;62.16
54329;BME280;40710;51.120;13.136;2022-11-15T06:59:37;99165.72;;;10.94;62.39
54329;BME280;40710;51.120;13.136;2022-11-15T07:02:03;99125.88;;;13.24;56.56
54329;BME280;40710;51.120;13.136;2022-11-15T07:04:27;99145.53;;;12.26;57.92
54329;BME280;40710;51.120;13.136;2022-11-15T07:06:52;99138.78;;;12.07;58.38
54329;BME280;40710;51.120;13.136;2022-11-15T07:09:16;99150.19;;;12.08;58.71
54329;BME280;40710;51.120;13.136;2022-11-15T07:11:41;99146.41;;;12.39;57.84
54329;BME280;40710;51.120;13.136;2022-11-15T07:14:06;99144.28;;;12.32;58.10
54329;BME280;40710;51.120;13.136;2022-11-15T07:16:30;99146.88;;;12.46;57.49
54329;BME280;40710;51.120;13.136;2022-11-15T07:18:55;99156.44;;;12.20;58.11
54329;BME280;40710;51.120;13.136;2022-11-15T07:21:20;99165.59;;;12.14;58.94
54329;BME280;40710;51.120;13.136;2022-11-15T07:23:45;99155.34;;;12.51;57.93
54329;BME280;40710;51.120;13.136;2022-11-15T07:26:09;99159.13;;;12.47;58.32
54329;BME280;40710;51.120;13.136;2022-11-15T07:28:34;99147.47;;;12.37;58.10
54329;BME280;40710;51.120;13.136;2022-11-15T07:31:03;99135.06;;;13.19;55.65
54329;BME280;40710;51.120;13.136;2022-11-15T07:33:27;99143.34;;;12.87;56.31
54329;BME280;40710;51.120;13.136;2022-11-15T07:35:52;99136.34;;;13.13;55.63
54329;BME280;40710;51.120;13.136;2022-11-15T07:38:17;99126.81;;;14.00;53.92
54329;BME280;40710;51.120;13.136;2022-11-15T07:40:45;99124.84;;;14.52;51.59
54329;BME280;40710;51.120;13.136;2022-11-15T07:43:10;99115.19;;;14.88;50.67
54329;BME280;40710;51.120;13.136;2022-11-15T07:45:43;99108.16;;;15.11;50.22
54329;BME280;40710;51.120;13.136;2022-11-15T07:48:08;99113.25;;;15.37;50.29
54329;BME280;40710;51.120;13.136;2022-11-15T07:50:33;99111.50;;;15.94;47.61
54329;BME280;40710;51.120;13.136;2022-11-15T07:52:59;99116.06;;;15.81;48.42
54329;BME280;40710;51.120;13.136;2022-11-15T07:55:25;99119.63;;;16.25;46.81
54329;BME280;40710;51.120;13.136;2022-11-15T07:57:51;99126.16;;;15.64;48.67
54329;BME280;40710;51.120;13.136;2022-11-15T08:00:16;99121.34;;;16.03;48.83
54329;BME280;40710;51.120;13.136;2022-11-15T08:02:41;99128.16;;;15.27;49.64
54329;BME280;40710;51.120;13.136;2022-11-15T08:05:06;99112.25;;;16.40;47.32
54329;BME280;40710;51.120;13.136;2022-11-15T08:07:31;99112.94;;;15.76;47.85
54329;BME280;40710;51.120;13.136;2022-11-15T08:09:56;99100.94;;;17.03;45.92
54329;BME280;40710;51.120;13.136;2022-11-15T08:12:21;99105.22;;;17.36;45.19
54329;BME280;40710;51.120;13.136;2022-11-15T08:14:45;99104.19;;;16.30;46.78
54329;BME280;40710;51.120;13.136;2022-11-15T08:17:10;99098.66;;;17.19;45.27
54329;BME280;40710;51.120;13.136;2022-11-15T08:19:35;99102.50;;;16.73;46.41
54329;BME280;40710;51.120;13.136;2022-11-15T08:21:59;99097.97;;;17.48;44.53
54329;BME280;40710;51.120;13.136;2022-11-15T08:24:24;99084.16;;;18.25;42.67
54329;BME280;40710;51.120;13.136;2022-11-15T08:26:48;99070.25;;;20.04;39.69
54329;BME280;40710;51.120;13.136;2022-11-15T08:29:13;99070.50;;;19.83;40.11
54329;BME280;40710;51.120;13.136;2022-11-15T08:31:37;99089.69;;;18.92;41.68
54329;BME280;40710;51.120;13.136;2022-11-15T08:34:03;99085.47;;;18.60;41.85
54329;BME280;40710;51.120;13.136;2022-11-15T08:36:28;99085.94;;;19.42;41.16
54329;BME280;40710;51.120;13.136;2022-11-15T08:38:53;99076.28;;;19.69;40.24
54329;BME280;40710;51.120;13.136;2022-11-15T08:41:28;99066.00;;;20.11;39.11
54329;BME280;40710;51.120;13.136;2022-11-15T08:43:54;99060.91;;;20.18;39.04
54329;BME280;40710;51.120;13.136;2022-11-15T08:46:18;99066.97;;;20.10;39.40
54329;BME280;40710;51.120;13.136;2022-11-15T08:48:43;99066.34;;;19.98;39.59
54329;BME280;40710;51.120;13.136;2022-11-15T08:51:07;99068.28;;;19.78;39.81
54329;BME280;40710;51.120;13.136;2022-11-15T08:53:34;99068.88;;;20.00;39.51
54329;BME280;40710;51.120;13.136;2022-11-15T08:55:58;99056.47;;;20.09;39.32
54329;BME280;40710;51.120;13.136;2022-11-15T08:58:23;99058.69;;;20.49;38.52
54329;BME280;40710;51.120;13.136;2022-11-15T09:00:48;99058.63;;;20.23;39.31
54329;BME280;40710;51.120;13.136;2022-11-15T09:03:12;99058.09;;;21.44;37.34
54329;BME280;40710;51.120;13.136;2022-11-15T09:05:37;99075.81;;;20.56;39.84
54329;BME280;40710;51.120;13.136;2022-11-15T09:08:04;99049.38;;;21.68;36.75
54329;BME280;40710;51.120;13.136;2022-11-15T09:10:28;99048.19;;;21.97;36.42
54329;BME280;40710;51.120;13.136;2022-11-15T09:12:53;99045.47;;;21.88;36.60
54329;BME280;40710;51.120;13.136;2022-11-15T09:15:18;99034.19;;;23.90;33.13
54329;BME280;40710;51.120;13.136;2022-11-15T09:17:44;99057.22;;;22.12;36.16
54329;BME280;40710;51.120;13.136;2022-11-15T09:20:08;99047.16;;;23.06;34.10
54329;BME280;40710;51.120;13.136;2022-11-15T09:22:34;99065.34;;;21.25;37.29
54329;BME280;40710;51.120;13.136;2022-11-15T09:25:00;99049.03;;;22.14;35.40
54329;BME280;40710;51.120;13.136;2022-11-15T09:27:31;99058.94;;;21.70;36.97
54329;BME280;40710;51.120;13.136;2022-11-15T09:29:56;99058.66;;;22.33;36.01
54329;BME280;40710;51.120;13.136;2022-11-15T09:32:20;99046.47;;;22.55;35.58
54329;BME280;40710;51.120;13.136;2022-11-15T09:34:47;99047.72;;;22.26;35.31
54329;BME280;40710;51.120;13.136;2022-11-15T09:37:11;99039.66;;;22.01;35.52
54329;BME280;40710;51.120;13.136;2022-11-15T09:39:36;99029.47;;;23.45;33.69
54329;BME280;40710;51.120;13.136;2022-11-15T09:47:54;99033.34;;;22.19;35.21
54329;BME280;40710;51.120;13.136;2022-11-15T09:50:47;99025.19;;;22.45;34.47
54329;BME280;40710;51.120;13.136;2022-11-15T09:56:03;99021.38;;;22.48;35.41
54329;BME280;40710;51.120;13.136;2022-11-15T09:58:41;99015.66;;;22.75;35.21
54329;BME280;40710;51.120;13.136;2022-11-15T10:01:19;99002.06;;;24.28;32.76
54329;BME280;40710;51.120;13.136;2022-11-15T10:03:50;98997.09;;;24.40;32.65
54329;BME280;40710;51.120;13.136;2022-11-15T10:06:25;99003.91;;;23.65;33.73
54329;BME280;40710;51.120;13.136;2022-11-15T10:09:01;99001.13;;;23.50;33.85
54329;BME280;40710;51.120;13.136;2022-11-15T10:11:34;98996.50;;;24.53;32.19
54329;BME280;40710;51.120;13.136;2022-11-15T10:14:08;98992.81;;;24.54;31.88
54329;BME280;40710;51.120;13.136;2022-11-15T10:24:58;98993.81;;;24.76;32.08
54329;BME280;40710;51.120;13.136;2022-11-15T10:27:24;98992.09;;;24.14;32.92
54329;BME280;40710;51.120;13.136;2022-11-15T10:29:50;98988.56;;;24.37;32.67
54329;BME280;40710;51.120;13.136;2022-11-15T10:32:17;98968.09;;;25.93;30.00
54329;BME280;40710;51.120;13.136;2022-11-15T10:34:43;98968.97;;;26.15;29.88
54329;BME280;40710;51.120;13.136;2022-11-15T10:37:08;98964.41;;;25.27;30.45
54329;BME280;40710;51.120;13.136;2022-11-15T10:39:32;98969.94;;;24.81;31.52
54329;BME280;40710;51.120;13.136;2022-11-15T10:42:27;98950.69;;;26.10;29.67
54329;BME280;40710;51.120;13.136;2022-11-15T10:44:52;98952.34;;;25.90;30.06
54329;BME280;40710;51.120;13.136;2022-11-15T10:47:30;98943.84;;;26.51;28.65
54329;BME280;40710;51.120;13.136;2022-11-15T10:50:02;98944.50;;;26.81;28.38
54329;BME280;40710;51.120;13.136;2022-11-15T10:52:29;98939.91;;;27.10;27.80
54329;BME280;40710;51.120;13.136;2022-11-15T10:57:38;98933.94;;;27.56;27.33
54329;BME280;40710;51.120;13.136;2022-11-15T11:00:07;98927.88;;;27.54;27.05
54329;BME280;40710;51.120;13.136;2022-11-15T11:05:36;98927.19;;;26.97;27.57
54329;BME280;40710;51.120;13.136;2022-11-15T11:10:29;98916.91;;;27.14;28.38
54329;BME280;40710;51.120;13.136;2022-11-15T11:12:54;98915.81;;;28.38;26.45
54329;BME280;40710;51.120;13.136;2022-11-15T11:15:19;98911.13;;;27.65;26.41
54329;BME280;40710;51.120;13.136;2022-11-15T11:17:57;98914.78;;;27.09;27.30
54329;BME280;40710;51.120;13.136;2022-11-15T11:21:02;98910.03;;;27.53;26.99
54329;BME280;40710;51.120;13.136;2022-11-15T11:23:51;98907.13;;;27.48;27.42
54329;BME280;40710;51.120;13.136;2022-11-15T11:26:47;98902.13;;;27.51;27.25
54329;BME280;40710;51.120;13.136;2022-11-15T11:29:43;98894.94;;;27.24;27.35
54329;BME280;40710;51.120;13.136;2022-11-15T11:32:23;98886.44;;;27.82;26.46
54329;BME280;40710;51.120;13.136;2022-11-15T11:35:14;98889.88;;;27.56;27.00
54329;BME280;40710;51.120;13.136;2022-11-15T11:37:55;98877.34;;;27.96;26.08
54329;BME280;40710;51.120;13.136;2022-11-15T11:40:29;98886.34;;;26.65;27.15
54329;BME280;40710;51.120;13.136;2022-11-15T11:43:22;98877.16;;;26.94;27.59
54329;BME280;40710;51.120;13.136;2022-11-15T11:45:58;98873.88;;;27.41;27.27
54329;BME280;40710;51.120;13.136;2022-11-15T11:48:43;98872.81;;;27.35;27.64
54329;BME280;40710;51.120;13.136;2022-11-15T11:54:14;98866.88;;;27.60;27.43
54329;BME280;40710;51.120;13.136;2022-11-15T11:56:44;98862.69;;;27.57;27.67
54329;BME280;40710;51.120;13.136;2022-11-15T11:59:22;98861.38;;;27.33;28.37
54329;BME280;40710;51.120;13.136;2022-11-15T12:01:50;98862.53;;;27.17;28.00
54329;BME280;40710;51.120;13.136;2022-11-15T12:04:29;98852.59;;;27.17;28.46
54329;BME280;40710;51.120;13.136;2022-11-15T12:07:13;98850.00;;;27.38;28.24
54329;BME280;40710;51.120;13.136;2022-11-15T12:09:51;98845.22;;;27.40;28.57
54329;BME280;40710;51.120;13.136;2022-11-15T12:14:59;98832.81;;;27.79;27.34
54329;BME280;40710;51.120;13.136;2022-11-15T12:17:29;98830.53;;;27.62;27.56
54329;BME280;40710;51.120;13.136;2022-11-15T12:19:58;98824.28;;;27.48;27.04
54329;BME280;40710;51.120;13.136;2022-11-15T12:22:41;98817.88;;;27.56;26.99
54329;BME280;40710;51.120;13.136;2022-11-15T12:27:44;98816.47;;;27.19;27.44
54329;BME280;40710;51.120;13.136;2022-11-15T12:30:17;98812.81;;;27.33;27.36
54329;BME280;40710;51.120;13.136;2022-11-15T12:32:52;98808.63;;;26.40;27.88
54329;BME280;40710;51.120;13.136;2022-11-15T12:35:36;98810.38;;;27.51;27.16
54329;BME280;40710;51.120;13.136;2022-11-15T12:38:02;98806.94;;;27.16;27.37
54329;BME280;40710;51.120;13.136;2022-11-15T12:40:35;98814.34;;;25.81;27.90
54329;BME280;40710;51.120;13.136;2022-11-15T12:43:38;98808.22;;;26.72;27.36
54329;BME280;40710;51.120;13.136;2022-11-15T12:46:09;98802.53;;;28.10;26.45
54329;BME280;40710;51.120;13.136;2022-11-15T12:51:00;98793.97;;;26.85;27.69
54329;BME280;40710;51.120;13.136;2022-11-15T12:53:33;98794.16;;;26.83;27.79
54329;BME280;40710;51.120;13.136;2022-11-15T12:58:57;98801.06;;;26.01;30.63
54329;BME280;40710;51.120;13.136;2022-11-15T13:04:21;98794.63;;;26.93;29.99
54329;BME280;40710;51.120;13.136;2022-11-15T13:06:49;98790.88;;;27.56;29.37
54329;BME280;40710;51.120;13.136;2022-11-15T13:12:00;98784.19;;;27.45;29.98
54329;BME280;40710;51.120;13.136;2022-11-15T13:17:09;98792.63;;;26.04;30.20
54329;BME280;40710;51.120;13.136;2022-11-15T13:19:37;98780.97;;;26.25;30.54
54329;BME280;40710;51.120;13.136;2022-11-15T13:22:06;98785.41;;;26.11;30.29
54329;BME280;40710;51.120;13.136;2022-11-15T13:24:51;98784.31;;;26.34;30.11
54329;BME280;40710;51.120;13.136;2022-11-15T13:27:19;98782.34;;;26.14;30.27
54329;BME280;40710;51.120;13.136;2022-11-15T13:29:44;98788.13;;;25.68;31.42
54329;BME280;40710;51.120;13.136;2022-11-15T13:32:14;98774.94;;;25.52;31.52
54329;BME280;40710;51.120;13.136;2022-11-15T13:34:44;98783.22;;;25.50;32.13
54329;BME280;40710;51.120;13.136;2022-11-15T13:37:31;98774.47;;;25.91;31.83
54329;BME280;40710;51.120;13.136;2022-11-15T13:40:20;98772.56;;;25.63;31.60
54329;BME280;40710;51.120;13.136;2022-11-15T13:42:45;98773.00;;;25.89;31.49
54329;BME280;40710;51.120;13.136;2022-11-15T13:45:15;98775.47;;;25.40;32.08
54329;BME280;40710;51.120;13.136;2022-11-15T13:47:41;98766.47;;;25.98;31.53
54329;BME280;40710;51.120;13.136;2022-11-15T13:50:05;98757.16;;;25.79;31.71
54329;BME280;40710;51.120;13.136;2022-11-15T13:52:38;98758.34;;;26.19;31.60
54329;BME280;40710;51.120;13.136;2022-11-15T13:55:15;98760.00;;;26.20;31.61
54329;BME280;40710;51.120;13.136;2022-11-15T13:58:17;98751.69;;;26.98;31.03
54329;BME280;40710;51.120;13.136;2022-11-15T14:00:41;98757.19;;;26.77;31.98